Time;durP1;ratioP1;P1;durP2;ratioP2;P2;SDS_P1;SDS_P2;PMS_P1;PMS_P2;Temp;Humidity;BMP_temperature;BMP_pressure;BME280_temperature;BME280_humidity;BME280_pressure;Samples;Min_cycle;Max_cycle;Signal;HPM_P1;HPM_P2
2022/01/22 00:00:01;;;;;;;15.20;3.70;;;6.70;95.20;;;;;;6109439;23;20464;-74
2022/01/22 00:02:26;;;;;;;14.68;3.58;;;6.70;95.20;;;;;;6133847;23;20071;-74
2022/01/22 00:04:52;;;;;;;16.75;3.15;;;6.70;95.20;;;;;;6158216;23;20048;-74
2022/01/22 00:07:18;;;;;;;11.88;3.28;;;6.70;95.20;;;;;;6158402;23;20021;-74
2022/01/22 00:09:50;;;;;;;18.38;3.47;;;6.80;95.30;;;;;;6158080;23;20057;-74
2022/01/22 00:12:29;;;;;;;12.82;3.35;;;6.80;95.30;;;;;;6159782;23;20013;-74
2022/01/22 00:14:55;;;;;;;14.15;3.45;;;6.80;95.30;;;;;;6136286;23;20075;-76
2022/01/22 00:17:20;;;;;;;12.98;3.63;;;6.80;95.30;;;;;;6133806;23;20017;-74
2022/01/22 00:19:46;;;;;;;16.98;3.75;;;6.80;95.30;;;;;;6184990;23;20471;-75
2022/01/22 00:22:12;;;;;;;14.35;4.07;;;6.80;95.30;;;;;;6158141;23;20082;-75
2022/01/22 00:24:39;;;;;;;20.92;4.28;;;6.80;95.30;;;;;;6159588;23;20028;-74
2022/01/22 00:27:05;;;;;;;14.95;3.40;;;6.80;95.30;;;;;;6111685;23;20025;-74
2022/01/22 00:29:31;;;;;;;16.10;3.70;;;6.80;95.30;;;;;;6186731;23;20017;-75
2022/01/22 00:31:57;;;;;;;20.63;4.15;;;6.80;95.30;;;;;;6160176;23;20048;-74
2022/01/22 00:34:22;;;;;;;11.68;3.42;;;6.80;95.30;;;;;;6135557;23;20436;-74
2022/01/22 00:36:48;;;;;;;16.20;3.47;;;6.80;95.30;;;;;;6159953;23;20056;-78
2022/01/22 00:39:14;;;;;;;18.05;3.28;;;6.80;95.30;;;;;;6135498;23;20107;-75
2022/01/22 00:41:39;;;;;;;13.75;3.30;;;6.80;95.30;;;;;;6160432;23;20028;-76
2022/01/22 00:44:05;;;;;;;18.17;2.78;;;6.80;95.30;;;;;;6160147;23;20017;-74
2022/01/22 00:46:31;;;;;;;14.30;3.03;;;6.80;95.30;;;;;;6135604;23;20100;-74
2022/01/22 00:48:56;;;;;;;16.45;3.17;;;6.90;95.40;;;;;;6135078;23;20325;-74
2022/01/22 00:51:22;;;;;;;12.18;3.17;;;6.80;95.40;;;;;;6159924;23;20013;-74
2022/01/22 00:53:48;;;;;;;13.35;3.13;;;6.80;95.40;;;;;;6135771;23;20021;-74
2022/01/22 00:56:14;;;;;;;16.20;3.50;;;6.80;95.40;;;;;;6186165;23;20017;-79
2022/01/22 00:58:39;;;;;;;12.15;2.85;;;6.80;95.40;;;;;;6135768;23;20021;-75
2022/01/22 01:01:05;;;;;;;16.50;3.25;;;6.80;95.40;;;;;;6159981;23;20035;-74
2022/01/22 01:03:33;;;;;;;15.93;3.25;;;6.80;95.40;;;;;;6159912;23;20391;-75
2022/01/22 01:06:02;;;;;;;11.35;3.17;;;6.90;95.40;;;;;;6135911;23;20347;-74
2022/01/22 01:08:29;;;;;;;9.80;2.90;;;6.90;95.40;;;;;;6135691;23;20063;-74
2022/01/22 01:10:55;;;;;;;11.15;3.10;;;6.90;95.40;;;;;;6186288;23;20013;-74
2022/01/22 01:13:21;;;;;;;18.92;3.63;;;6.90;95.40;;;;;;6159344;23;20513;-75
2022/01/22 01:32:12;;;;;;;14.98;2.85;;;6.90;95.40;;;;;;6138605;23;20024;-75
2022/01/22 01:34:43;;;;;;;12.60;3.30;;;6.90;95.40;;;;;;6159703;23;20588;-74
2022/01/22 01:37:11;;;;;;;14.40;3.65;;;6.90;95.40;;;;;;6186092;23;20024;-74
2022/01/22 01:39:38;;;;;;;14.68;3.42;;;6.90;95.40;;;;;;6159357;23;20021;-75
2022/01/22 01:42:09;;;;;;;16.23;4.18;;;6.90;95.40;;;;;;6186066;23;20021;-74
2022/01/22 01:44:34;;;;;;;11.95;2.80;;;7.00;95.40;;;;;;6185694;23;20021;-75
2022/01/22 01:47:04;;;;;;;11.35;2.78;;;6.90;95.40;;;;;;6186369;23;20017;-75
2022/01/22 01:49:30;;;;;;;14.77;3.35;;;6.90;95.40;;;;;;6134339;23;20025;-74
2022/01/22 01:51:59;;;;;;;13.13;3.47;;;6.90;95.40;;;;;;6135337;23;20463;-74
2022/01/22 01:59:42;;;;;;;14.32;3.15;;;7.00;95.40;;;;;;6185550;23;20110;-75
2022/01/22 02:02:08;;;;;;;11.20;3.10;;;7.00;95.70;;;;;;6159545;23;20059;-74
2022/01/22 02:04:34;;;;;;;15.23;3.22;;;7.00;95.40;;;;;;6134400;23;20017;-74
2022/01/22 02:07:00;;;;;;;9.93;2.40;;;7.00;95.50;;;;;;6134805;23;20021;-74
2022/01/22 02:09:25;;;;;;;13.70;3.28;;;7.00;95.40;;;;;;6134087;23;20009;-76
2022/01/22 02:11:59;;;;;;;9.27;3.30;;;7.00;95.40;;;;;;6183996;23;20020;-74
2022/01/22 02:25:22;;;;;;;13.02;2.90;;;7.00;95.50;;;;;;6159410;23;20021;-74
2022/01/22 02:27:48;;;;;;;11.93;2.17;;;7.00;95.40;;;;;;6184881;23;20017;-74
2022/01/22 02:30:20;;;;;;;5.47;1.90;;;7.00;95.50;;;;;;6184118;23;20017;-75
2022/01/22 02:35:44;;;;;;;14.05;2.42;;;7.00;95.50;;;;;;6159018;23;20443;-75
2022/01/22 02:38:08;;;;;;;8.82;2.10;;;7.00;95.50;;;;;;6162230;23;20048;-74
2022/01/22 02:40:41;;;;;;;9.57;2.15;;;7.00;95.50;;;;;;6158742;23;20021;-75
2022/01/22 02:43:10;;;;;;;10.93;2.00;;;7.00;95.50;;;;;;6159036;23;20024;-74
2022/01/22 02:45:35;;;;;;;8.98;2.55;;;7.00;95.50;;;;;;6159529;23;20388;-74
2022/01/22 02:48:03;;;;;;;6.38;1.88;;;7.00;95.50;;;;;;6158603;23;20095;-75
2022/01/22 02:50:29;;;;;;;8.18;1.80;;;7.10;95.50;;;;;;6134598;23;20025;-81
2022/01/22 02:52:54;;;;;;;8.55;1.80;;;7.10;95.50;;;;;;6159175;23;20021;-74
2022/01/22 02:55:20;;;;;;;10.82;1.98;;;7.00;95.60;;;;;;6159075;23;20021;-74
2022/01/22 02:57:46;;;;;;;11.43;2.20;;;7.00;95.50;;;;;;6133901;23;20017;-75
2022/01/22 03:00:16;;;;;;;7.88;1.92;;;7.00;95.60;;;;;;6159349;23;20455;-74
2022/01/22 03:02:42;;;;;;;8.57;1.60;;;7.00;95.60;;;;;;6134600;23;20091;-76
2022/01/22 03:05:08;;;;;;;7.65;1.92;;;7.00;95.60;;;;;;6158496;23;20077;-75
2022/01/22 03:10:22;;;;;;;8.82;1.98;;;7.00;95.60;;;;;;6158828;23;20024;-74
2022/01/22 03:18:06;;;;;;;9.77;2.08;;;7.00;95.60;;;;;;6134901;23;20063;-74
2022/01/22 03:28:40;;;;;;;9.13;2.28;;;7.10;95.60;;;;;;6137459;23;20100;-81
2022/01/22 03:31:06;;;;;;;7.40;1.88;;;7.10;95.60;;;;;;6185216;23;20044;-74
2022/01/22 03:33:31;;;;;;;6.28;1.80;;;7.10;95.50;;;;;;6158164;23;20017;-74
2022/01/22 03:35:59;;;;;;;9.90;2.53;;;7.10;95.60;;;;;;6158551;23;20017;-75
2022/01/22 03:38:25;;;;;;;10.25;2.13;;;7.10;95.60;;;;;;6159152;23;20024;-75
2022/01/22 03:40:51;;;;;;;8.18;1.88;;;7.10;95.60;;;;;;6158387;23;20017;-75
2022/01/22 03:43:17;;;;;;;11.35;2.78;;;7.10;95.60;;;;;;6158768;23;20024;-74
2022/01/22 03:45:43;;;;;;;7.18;2.05;;;7.10;95.60;;;;;;6158650;23;20075;-75
2022/01/22 03:48:09;;;;;;;6.97;1.65;;;7.10;95.60;;;;;;6133818;23;20017;-77
2022/01/22 03:50:35;;;;;;;5.78;1.75;;;7.10;95.60;;;;;;6184861;23;20021;-74
2022/01/22 03:53:00;;;;;;;6.22;1.88;;;7.10;95.60;;;;;;6158624;23;20095;-74
2022/01/22 03:56:09;;;;;;;4.55;1.50;;;7.10;95.60;;;;;;6158305;23;20028;-74
2022/01/22 03:58:14;;;;;;;6.43;1.63;;;7.10;95.60;;;;;;6176588;23;20443;-74
2022/01/22 04:00:40;;;;;;;3.67;1.42;;;7.10;95.60;;;;;;6134993;23;20052;-76
2022/01/22 04:06:11;;;;;;;5.32;1.30;;;7.10;95.70;;;;;;6186753;23;20027;-75
2022/01/22 04:08:33;;;;;;;8.75;1.50;;;7.10;95.60;;;;;;6139800;23;20027;-74
2022/01/22 04:10:58;;;;;;;4.95;1.45;;;7.10;95.70;;;;;;6160305;23;20079;-74
2022/01/22 04:13:31;;;;;;;3.33;1.38;;;7.10;95.70;;;;;;6135808;23;20032;-74
2022/01/22 04:15:57;;;;;;;5.85;1.33;;;7.10;95.70;;;;;;6137202;23;20020;-75
2022/01/22 04:29:01;;;;;;;5.32;1.10;;;7.10;95.70;;;;;;6160150;23;20056;-74
2022/01/22 04:31:26;;;;;;;5.30;1.02;;;7.10;95.70;;;;;;6160555;23;20013;-74
2022/01/22 04:33:52;;;;;;;5.50;1.55;;;7.10;95.80;;;;;;6159862;23;20055;-75
2022/01/22 04:36:18;;;;;;;2.53;1.35;;;7.10;95.70;;;;;;6136052;23;20017;-75
2022/01/22 04:38:43;;;;;;;2.70;1.00;;;7.10;95.70;;;;;;6186463;23;20024;-80
2022/01/22 04:41:09;;;;;;;4.95;1.08;;;7.20;95.80;;;;;;6160456;23;20333;-75
2022/01/22 04:43:37;;;;;;;3.65;1.15;;;7.10;95.80;;;;;;6186519;23;20436;-74
2022/01/22 04:46:33;;;;;;;4.97;1.50;;;7.10;95.80;;;;;;6135738;23;20013;-75
2022/01/22 04:49:09;;;;;;;3.30;1.20;;;7.10;95.80;;;;;;6164260;23;20052;-76
2022/01/22 04:57:03;;;;;;;3.33;1.40;;;7.10;95.80;;;;;;6138910;23;20100;-75
2022/01/22 04:59:29;;;;;;;4.07;1.13;;;7.20;95.80;;;;;;6159877;23;20071;-74
2022/01/22 05:01:55;;;;;;;4.65;1.52;;;7.20;95.80;;;;;;6159595;23;20343;-74
2022/01/22 05:04:21;;;;;;;6.10;1.98;;;7.10;95.80;;;;;;6159909;23;20044;-78
2022/01/22 05:06:46;;;;;;;3.70;1.48;;;7.20;95.80;;;;;;6160326;23;20021;-75
2022/01/22 05:09:12;;;;;;;4.88;1.40;;;7.20;95.80;;;;;;6160042;23;20438;-74
2022/01/22 05:11:37;;;;;;;3.58;1.38;;;7.10;95.80;;;;;;6159028;23;20028;-72
2022/01/22 05:14:03;;;;;;;4.35;1.50;;;7.10;95.80;;;;;;6159633;23;20096;-74
2022/01/22 05:16:29;;;;;;;4.57;1.50;;;7.20;95.80;;;;;;6184756;23;20025;-75
2022/01/22 05:19:00;;;;;;;4.03;1.38;;;7.10;95.80;;;;;;6159679;23;20017;-75
2022/01/22 05:21:28;;;;;;;5.00;1.55;;;7.20;95.80;;;;;;6161418;23;20333;-74
2022/01/22 05:23:56;;;;;;;4.85;1.50;;;7.20;95.90;;;;;;6110569;23;20021;-76
2022/01/22 05:26:55;;;;;;;6.35;2.40;;;7.20;95.90;;;;;;6160357;23;20024;-74
2022/01/22 05:39:21;;;;;;;5.22;1.67;;;7.10;95.90;;;;;;6186122;23;20096;-74
2022/01/22 05:41:47;;;;;;;3.53;1.75;;;7.10;95.90;;;;;;6135723;23;20028;-74
2022/01/22 05:44:12;;;;;;;4.88;1.30;;;7.10;95.90;;;;;;6159248;23;20415;-74
2022/01/22 05:46:38;;;;;;;5.53;1.45;;;7.10;95.90;;;;;;6135449;23;20036;-74
2022/01/22 05:49:04;;;;;;;4.55;1.55;;;7.10;95.90;;;;;;6159053;23;20017;-74
2022/01/22 05:51:30;;;;;;;4.18;1.25;;;7.10;95.90;;;;;;6159588;23;20440;-74
2022/01/22 05:59:57;;;;;;;3.72;1.45;;;7.10;95.80;;;;;;6163772;23;20095;-74
2022/01/22 06:02:16;;;;;;;6.87;2.40;;;7.10;95.80;;;;;;6156546;23;20024;-73
2022/01/22 06:04:43;;;;;;;7.80;2.63;;;7.10;95.80;;;;;;6134844;23;20092;-75
2022/01/22 06:07:09;;;;;;;7.70;2.35;;;7.10;95.80;;;;;;6159067;23;20024;-74
2022/01/22 06:09:37;;;;;;;7.00;2.72;;;7.10;95.80;;;;;;6185959;23;20019;-73
2022/01/22 06:14:34;;;;;;;6.20;2.40;;;7.10;95.90;;;;;;6135289;23;20025;-73
2022/01/22 06:17:00;;;;;;;7.50;2.50;;;7.10;95.90;;;;;;6158782;23;20052;-75
2022/01/22 06:19:26;;;;;;;7.75;3.03;;;7.10;95.90;;;;;;6185364;23;20017;-75
2022/01/22 06:21:51;;;;;;;7.22;2.70;;;7.10;95.90;;;;;;6133377;23;20017;-74
2022/01/22 06:24:18;;;;;;;7.25;2.22;;;7.20;95.90;;;;;;6183422;23;20466;-75
2022/01/22 06:26:44;;;;;;;7.05;2.40;;;7.10;95.90;;;;;;6158472;23;20443;-74
2022/01/22 06:29:09;;;;;;;7.22;2.35;;;7.10;95.90;;;;;;6158612;23;20063;-74
2022/01/22 06:31:38;;;;;;;7.25;3.15;;;7.10;95.90;;;;;;6158732;23;20091;-73
2022/01/22 06:34:04;;;;;;;8.73;2.80;;;7.20;96.00;;;;;;6157938;23;20538;-74
2022/01/22 06:36:30;;;;;;;9.25;4.20;;;7.20;96.00;;;;;;6184242;23;20017;-73
2022/01/22 06:38:59;;;;;;;8.40;2.92;;;7.10;95.90;;;;;;6159336;23;20447;-74
2022/01/22 06:44:10;;;;;;;7.60;2.97;;;7.10;95.90;;;;;;6162279;23;20103;-75
2022/01/22 06:46:36;;;;;;;7.15;2.85;;;7.10;95.90;;;;;;6159351;23;20048;-74
2022/01/22 06:49:01;;;;;;;7.25;2.80;;;7.10;96.00;;;;;;6134356;23;20032;-80
2022/01/22 06:51:27;;;;;;;8.38;2.58;;;7.10;96.00;;;;;;6159240;23;20017;-74
2022/01/22 06:53:54;;;;;;;5.72;2.35;;;7.10;96.00;;;;;;6159347;23;20021;-74
2022/01/22 06:56:21;;;;;;;6.65;2.42;;;7.10;95.90;;;;;;6158329;23;20044;-74
2022/01/22 06:58:48;;;;;;;6.07;2.33;;;7.10;96.00;;;;;;6159342;23;20017;-73
2022/01/22 07:01:14;;;;;;;4.65;1.88;;;7.10;96.00;;;;;;6134341;23;20340;-74
2022/01/22 07:03:40;;;;;;;5.55;2.65;;;7.10;96.00;;;;;;6159174;23;20358;-75
2022/01/22 07:06:05;;;;;;;6.68;2.13;;;7.20;96.00;;;;;;6109547;23;20021;-77
2022/01/22 07:08:31;;;;;;;6.90;2.38;;;7.10;96.00;;;;;;6159158;23;20017;-75
2022/01/22 07:10:56;;;;;;;3.83;1.75;;;7.10;96.00;;;;;;6158969;23;20340;-75
2022/01/22 07:13:22;;;;;;;4.43;1.60;;;7.10;96.00;;;;;;6133877;23;20036;-73
2022/01/22 07:15:48;;;;;;;7.25;2.05;;;7.10;96.00;;;;;;6134118;23;20135;-74
2022/01/22 07:18:14;;;;;;;4.80;2.03;;;7.10;96.00;;;;;;6158434;23;20093;-75
2022/01/22 07:20:44;;;;;;;4.70;1.70;;;7.10;96.00;;;;;;6184613;23;20455;-72
2022/01/22 07:25:44;;;;;;;3.85;1.60;;;7.10;96.00;;;;;;6185249;23;20044;-72
2022/01/22 07:28:11;;;;;;;4.97;1.60;;;7.10;96.00;;;;;;6134109;23;20025;-73
2022/01/22 07:30:38;;;;;;;4.35;1.75;;;7.20;96.00;;;;;;6134620;23;20017;-72
2022/01/22 07:33:04;;;;;;;3.28;1.77;;;7.10;96.00;;;;;;6158853;23;20013;-73
2022/01/22 07:35:29;;;;;;;4.30;1.70;;;7.10;96.00;;;;;;6109451;23;20024;-72
2022/01/22 07:37:55;;;;;;;4.88;1.75;;;7.10;96.00;;;;;;6158834;23;20017;-72
2022/01/22 07:40:21;;;;;;;3.95;1.40;;;7.10;96.00;;;;;;6158642;23;20466;-72
2022/01/22 07:42:49;;;;;;;5.75;1.77;;;7.10;96.00;;;;;;6134058;23;20052;-72
2022/01/22 07:45:15;;;;;;;3.20;1.10;;;7.10;96.00;;;;;;6158793;23;20017;-72
2022/01/22 07:47:41;;;;;;;3.10;1.35;;;7.10;96.00;;;;;;6184520;23;20017;-72
2022/01/22 07:50:07;;;;;;;3.60;1.10;;;7.10;96.00;;;;;;6109623;23;20407;-72
2022/01/22 07:52:33;;;;;;;3.90;1.45;;;7.10;96.00;;;;;;6158153;23;20053;-72
2022/01/22 07:54:58;;;;;;;3.97;1.45;;;7.10;96.00;;;;;;6158947;23;20064;-75
2022/01/22 07:57:24;;;;;;;4.07;1.48;;;7.20;96.00;;;;;;6158462;23;20017;-73
2022/01/22 07:59:50;;;;;;;4.38;1.52;;;7.10;96.00;;;;;;6134098;23;20021;-72
2022/01/22 08:02:16;;;;;;;5.20;1.45;;;7.10;96.00;;;;;;6158228;23;20017;-72
2022/01/22 08:04:41;;;;;;;5.18;1.25;;;7.10;96.00;;;;;;6134054;23;20024;-73
2022/01/22 08:07:08;;;;;;;3.85;1.38;;;7.10;96.00;;;;;;6158375;23;20013;-72
2022/01/22 08:09:34;;;;;;;5.15;1.58;;;7.10;95.90;;;;;;6158162;23;20013;-80
2022/01/22 08:11:59;;;;;;;4.13;1.63;;;7.10;95.90;;;;;;6184528;23;20023;-73
2022/01/22 08:14:25;;;;;;;5.10;1.73;;;7.10;95.90;;;;;;6158315;23;20028;-74
2022/01/22 08:16:51;;;;;;;6.13;1.40;;;7.10;95.90;;;;;;6133817;23;20036;-74
2022/01/22 08:19:17;;;;;;;3.08;1.42;;;7.20;95.90;;;;;;6133491;23;20025;-73
2022/01/22 08:21:43;;;;;;;3.60;1.20;;;7.10;95.80;;;;;;6109797;23;20096;-73
2022/01/22 08:24:10;;;;;;;4.45;1.67;;;7.20;95.90;;;;;;6158846;23;20017;-73
2022/01/22 08:26:40;;;;;;;4.90;1.63;;;7.20;95.80;;;;;;6158784;23;20327;-74
2022/01/22 08:29:06;;;;;;;5.28;1.70;;;7.20;95.80;;;;;;6159274;23;20348;-73
2022/01/22 08:36:43;;;;;;;5.07;1.73;;;7.20;95.80;;;;;;6137138;23;20017;-73
2022/01/22 08:39:09;;;;;;;3.15;1.60;;;7.20;95.80;;;;;;6158443;23;20017;-73
2022/01/22 08:41:35;;;;;;;4.15;1.52;;;7.20;95.80;;;;;;6133619;23;20332;-73
2022/01/22 08:44:01;;;;;;;6.40;1.60;;;7.20;95.70;;;;;;6184713;23;20339;-74
2022/01/22 08:46:27;;;;;;;3.60;1.55;;;7.30;95.80;;;;;;6158975;23;20031;-73
2022/01/22 08:48:53;;;;;;;5.95;1.92;;;7.20;95.70;;;;;;6159677;23;20340;-73
2022/01/22 08:51:18;;;;;;;5.43;1.80;;;7.20;95.80;;;;;;6135067;23;20093;-80
2022/01/22 08:53:44;;;;;;;5.75;1.70;;;7.20;95.70;;;;;;6111129;23;20447;-74
2022/01/22 08:56:10;;;;;;;7.07;2.00;;;7.20;95.80;;;;;;6135772;23;20032;-74
2022/01/22 08:58:36;;;;;;;5.15;1.75;;;7.20;95.80;;;;;;6159774;23;20021;-73
2022/01/22 09:01:02;;;;;;;5.72;1.90;;;7.30;95.80;;;;;;6110934;23;20017;-73
2022/01/22 09:03:28;;;;;;;6.00;2.05;;;7.30;95.80;;;;;;6135092;23;20056;-73
2022/01/22 09:05:54;;;;;;;5.72;2.13;;;7.30;95.80;;;;;;6159224;23;20013;-74
2022/01/22 09:08:20;;;;;;;9.05;2.92;;;7.30;95.80;;;;;;6183760;23;20021;-74
2022/01/22 09:10:46;;;;;;;9.75;3.65;;;7.30;95.80;;;;;;6134664;23;20021;-74
2022/01/22 09:13:12;;;;;;;7.72;2.20;;;7.30;95.80;;;;;;6135146;23;20024;-75
2022/01/22 09:15:38;;;;;;;7.13;2.55;;;7.30;95.80;;;;;;6134791;23;20028;-74
2022/01/22 09:18:05;;;;;;;6.13;2.70;;;7.30;95.80;;;;;;6160067;23;20313;-74
2022/01/22 09:20:44;;;;;;;6.15;2.53;;;7.40;95.80;;;;;;6159645;23;20013;-73
2022/01/22 09:23:10;;;;;;;6.72;2.38;;;7.40;95.80;;;;;;6162813;23;20071;-74
2022/01/22 09:25:36;;;;;;;8.40;2.50;;;7.40;95.80;;;;;;6134745;23;20506;-74
2022/01/22 09:28:02;;;;;;;7.55;2.83;;;7.40;95.70;;;;;;6159975;23;20059;-74
2022/01/22 09:30:28;;;;;;;9.18;2.83;;;7.40;95.70;;;;;;6134959;23;20099;-75
2022/01/22 09:32:54;;;;;;;7.32;2.63;;;7.40;95.70;;;;;;6135626;23;20368;-74
2022/01/22 09:35:19;;;;;;;7.95;2.90;;;7.40;95.70;;;;;;6133799;23;20019;-76
2022/01/22 09:37:45;;;;;;;5.68;2.25;;;7.40;95.70;;;;;;6134008;23;20447;-74
2022/01/22 09:40:14;;;;;;;8.38;2.58;;;7.50;95.70;;;;;;6135555;23;20064;-74
2022/01/22 09:42:40;;;;;;;8.05;2.97;;;7.50;95.70;;;;;;6186043;23;20055;-75
2022/01/22 09:45:07;;;;;;;8.20;2.85;;;7.50;95.70;;;;;;6159735;23;20462;-75
2022/01/22 09:47:33;;;;;;;8.45;2.88;;;7.50;95.70;;;;;;6110068;23;20025;-77
2022/01/22 09:49:58;;;;;;;7.25;2.70;;;7.50;95.70;;;;;;6135458;23;20355;-76
2022/01/22 09:52:24;;;;;;;5.60;2.65;;;7.50;95.70;;;;;;6134446;23;20017;-77
2022/01/22 09:54:50;;;;;;;6.07;2.70;;;7.50;95.70;;;;;;6185063;23;20063;-74
2022/01/22 09:57:16;;;;;;;6.28;2.42;;;7.60;95.70;;;;;;6159468;23;20048;-77
2022/01/22 09:59:41;;;;;;;6.13;2.53;;;7.60;95.70;;;;;;6157254;23;20017;-78
2022/01/22 10:02:14;;;;;;;6.50;2.97;;;7.60;95.70;;;;;;6134537;23;20025;-78
2022/01/22 10:04:41;;;;;;;6.55;2.83;;;7.60;95.70;;;;;;6134668;23;20474;-81
2022/01/22 10:07:14;;;;;;;10.45;3.35;;;7.60;95.70;;;;;;6159689;23;20028;-77
2022/01/22 10:10:02;;;;;;;8.90;3.00;;;7.60;95.70;;;;;;6159514;23;20096;-76
2022/01/22 10:12:31;;;;;;;9.05;3.25;;;7.60;95.60;;;;;;6159872;23;20032;-76
2022/01/22 10:15:03;;;;;;;11.63;3.45;;;7.60;95.60;;;;;;6186815;23;20019;-78
2022/01/22 10:17:44;;;;;;;9.38;3.40;;;7.60;95.60;;;;;;6159074;23;20436;-90
2022/01/22 10:20:22;;;;;;;8.20;2.92;;;7.70;95.60;;;;;;6158824;23;20024;-75
2022/01/22 10:23:00;;;;;;;12.10;3.80;;;7.70;95.60;;;;;;6158779;23;20096;-75
2022/01/22 10:25:35;;;;;;;7.30;2.83;;;7.70;95.60;;;;;;6134893;23;20025;-76
2022/01/22 10:28:03;;;;;;;8.73;3.60;;;7.70;95.60;;;;;;6136477;23;20379;-75
2022/01/22 10:30:38;;;;;;;12.00;3.55;;;7.70;95.60;;;;;;6159793;23;20475;-76
2022/01/22 10:33:42;;;;;;;9.68;4.22;;;7.80;95.60;;;;;;6135853;23;20016;-77
2022/01/22 10:36:14;;;;;;;9.82;3.78;;;7.80;95.50;;;;;;6157768;23;20025;-81
2022/01/22 10:38:41;;;;;;;11.00;3.95;;;7.80;95.50;;;;;;6160403;23;20075;-77
2022/01/22 10:41:07;;;;;;;8.95;3.80;;;7.80;95.50;;;;;;6185014;23;20102;-77
2022/01/22 10:43:34;;;;;;;9.43;4.05;;;7.80;95.50;;;;;;6159145;23;20021;-82
2022/01/22 10:46:19;;;;;;;10.32;3.42;;;7.80;95.50;;;;;;6159254;23;20084;-76
2022/01/22 10:49:08;;;;;;;9.70;4.18;;;7.80;95.50;;;;;;6158415;23;20052;-77
2022/01/22 10:51:52;;;;;;;9.35;3.90;;;7.80;95.40;;;;;;6158923;23;20111;-80
2022/01/22 10:54:23;;;;;;;8.93;3.83;;;7.90;95.40;;;;;;6134072;23;20459;-75
2022/01/22 10:56:49;;;;;;;9.95;4.28;;;7.90;95.40;;;;;;6158718;23;20075;-76
2022/01/22 10:59:17;;;;;;;11.20;4.03;;;7.90;95.40;;;;;;6158465;23;20401;-78
2022/01/22 11:01:47;;;;;;;7.97;4.07;;;7.90;95.40;;;;;;6133804;23;20024;-77
2022/01/22 11:04:17;;;;;;;13.68;4.00;;;7.90;95.40;;;;;;6134080;23;20021;-76
2022/01/22 11:06:51;;;;;;;8.77;3.97;;;7.90;95.40;;;;;;6110080;23;20016;-78
2022/01/22 11:09:17;;;;;;;10.43;4.20;;;7.90;95.40;;;;;;6110566;23;20399;-77
2022/01/22 11:11:43;;;;;;;9.10;4.70;;;7.90;95.40;;;;;;6158262;23;20013;-76
2022/01/22 11:14:09;;;;;;;12.20;4.35;;;7.90;95.40;;;;;;6158610;23;20167;-78
2022/01/22 11:16:43;;;;;;;8.25;3.83;;;7.90;95.40;;;;;;6157911;23;20020;-76
2022/01/22 11:19:09;;;;;;;9.23;4.55;;;7.90;95.30;;;;;;6109948;23;20040;-77
2022/01/22 11:21:40;;;;;;;6.95;4.35;;;7.90;95.30;;;;;;6158835;23;20016;-76
2022/01/22 11:24:09;;;;;;;14.95;4.72;;;8.00;95.30;;;;;;6137592;23;20092;-79
2022/01/22 11:26:37;;;;;;;12.45;4.63;;;8.00;95.30;;;;;;6161086;23;20091;-75
2022/01/22 11:29:03;;;;;;;9.40;4.32;;;8.00;95.20;;;;;;6132825;23;20063;-77
2022/01/22 11:31:29;;;;;;;11.60;5.25;;;8.00;95.20;;;;;;6133447;23;20371;-74
2022/01/22 11:33:54;;;;;;;10.18;4.78;;;8.00;95.20;;;;;;6133358;23;20021;-74
2022/01/22 11:36:28;;;;;;;10.48;5.47;;;8.00;95.20;;;;;;6158286;23;20023;-73
2022/01/22 11:38:57;;;;;;;11.88;5.57;;;8.00;95.20;;;;;;6109180;23;20028;-74
2022/01/22 11:41:23;;;;;;;13.60;6.10;;;7.90;95.20;;;;;;6132467;23;20052;-76
2022/01/22 11:44:03;;;;;;;11.95;5.90;;;8.00;95.20;;;;;;6133337;23;20471;-75
2022/01/22 11:46:58;;;;;;;10.90;5.50;;;8.00;95.20;;;;;;6088466;23;20029;-75
2022/01/22 11:49:28;;;;;;;14.30;6.43;;;8.00;95.20;;;;;;6112408;23;20080;-78
2022/01/22 11:52:14;;;;;;;14.57;6.78;;;8.00;95.20;;;;;;6081554;23;20024;-75
2022/01/22 11:54:59;;;;;;;16.45;7.28;;;8.00;95.10;;;;;;6105319;23;20080;-75
2022/01/22 11:57:29;;;;;;;12.18;7.70;;;8.00;95.10;;;;;;6130447;23;20109;-75
2022/01/22 12:00:19;;;;;;;18.65;8.38;;;8.00;95.10;;;;;;6107450;23;20048;-78
2022/01/22 12:02:45;;;;;;;16.42;7.00;;;8.00;95.10;;;;;;6106879;23;20021;-81
2022/01/22 12:08:01;;;;;;;15.18;7.30;;;8.10;95.10;;;;;;6152995;23;20452;-77
2022/01/22 12:10:39;;;;;;;16.75;6.20;;;8.10;95.10;;;;;;6153691;23;20018;-75
2022/01/22 12:16:39;;;;;;;14.38;5.38;;;8.00;95.00;;;;;;6126933;23;20072;-76
2022/01/22 12:19:09;;;;;;;11.88;5.47;;;8.10;95.00;;;;;;6152296;23;20025;-75
2022/01/22 12:21:38;;;;;;;11.52;5.60;;;8.00;95.00;;;;;;6155129;23;20036;-76
2022/01/22 12:24:14;;;;;;;9.68;5.07;;;8.00;95.00;;;;;;6130401;23;20024;-74
2022/01/22 12:26:44;;;;;;;9.70;5.15;;;8.10;95.00;;;;;;6155532;23;20013;-73
2022/01/22 12:29:30;;;;;;;13.75;6.22;;;8.00;94.90;;;;;;6154981;23;20049;-76
2022/01/22 12:32:06;;;;;;;9.73;4.88;;;8.10;94.90;;;;;;6106946;23;20341;-76
2022/01/22 12:34:58;;;;;;;11.43;4.93;;;8.10;94.90;;;;;;6132294;23;20021;-75
2022/01/22 12:37:25;;;;;;;9.68;5.60;;;8.10;94.90;;;;;;6133362;23;20017;-75
2022/01/22 12:39:54;;;;;;;9.90;5.45;;;8.10;94.90;;;;;;6155950;23;20021;-76
2022/01/22 12:42:33;;;;;;;9.40;5.22;;;8.10;94.90;;;;;;6132876;23;20014;-75
2022/01/22 12:45:00;;;;;;;11.13;5.35;;;8.00;94.90;;;;;;6131494;23;20056;-76
2022/01/22 12:47:27;;;;;;;10.80;6.00;;;8.10;94.90;;;;;;6107534;23;20096;-76
2022/01/22 12:50:04;;;;;;;14.68;5.60;;;8.10;94.90;;;;;;6126618;23;20440;-76
2022/01/22 12:52:49;;;;;;;11.35;5.88;;;8.10;94.90;;;;;;6113211;23;20013;-76
2022/01/22 12:55:37;;;;;;;14.45;5.72;;;8.10;94.90;;;;;;6137955;23;20014;-76
2022/01/22 12:58:03;;;;;;;10.45;5.65;;;8.10;94.90;;;;;;6141874;23;20017;-82
2022/01/22 13:00:29;;;;;;;13.70;5.78;;;8.10;94.90;;;;;;6114380;23;20096;-76
2022/01/22 13:02:56;;;;;;;11.68;5.28;;;8.10;94.90;;;;;;6188948;23;20017;-77
2022/01/22 13:05:22;;;;;;;11.27;5.20;;;8.10;95.20;;;;;;6163574;23;20068;-77
2022/01/22 13:07:57;;;;;;;13.25;4.88;;;8.10;94.90;;;;;;6162047;23;20028;-77
2022/01/22 13:10:32;;;;;;;13.02;4.78;;;8.10;95.20;;;;;;6137786;23;20024;-76
2022/01/22 13:12:58;;;;;;;9.15;4.18;;;8.10;94.90;;;;;;6113397;23;20455;-78
2022/01/22 13:15:26;;;;;;;10.07;4.40;;;8.10;94.80;;;;;;6136577;23;20052;-76
2022/01/22 13:17:59;;;;;;;16.75;4.72;;;8.10;94.80;;;;;;6137070;23;20021;-75
2022/01/22 13:20:32;;;;;;;10.70;4.45;;;8.20;94.80;;;;;;6112397;23;20021;-76
2022/01/22 13:23:01;;;;;;;13.48;4.18;;;8.20;94.80;;;;;;6136871;23;20020;-75
2022/01/22 13:25:27;;;;;;;9.82;3.28;;;8.20;94.80;;;;;;6137304;23;20019;-76
2022/01/22 13:28:01;;;;;;;8.73;4.28;;;8.20;94.80;;;;;;6161104;23;20048;-75
2022/01/22 13:30:36;;;;;;;8.02;3.67;;;8.20;94.80;;;;;;6135455;23;20078;-76
2022/01/22 13:33:14;;;;;;;7.55;2.83;;;8.20;94.80;;;;;;6162725;23;20092;-78
2022/01/22 13:49:02;;;;;;;8.35;3.00;;;8.70;94.20;;;;;;6164350;23;20029;-81
2022/01/22 13:51:28;;;;;;;9.27;3.95;;;8.60;94.20;;;;;;6185211;23;20025;-75
2022/01/22 13:53:55;;;;;;;11.23;3.20;;;8.60;94.30;;;;;;6111672;23;20021;-76
2022/01/22 13:56:43;;;;;;;11.45;3.70;;;8.50;94.30;;;;;;6160339;23;20013;-75
2022/01/22 13:59:44;;;;;;;8.13;3.13;;;8.50;94.40;;;;;;6164431;23;20020;-76
2022/01/22 14:04:47;;;;;;;10.32;3.25;;;8.40;94.40;;;;;;6161352;23;20471;-79
2022/01/22 14:07:36;;;;;;;9.40;2.78;;;8.40;94.50;;;;;;6138970;23;20021;-77
2022/01/22 14:10:13;;;;;;;4.85;1.98;;;8.30;94.40;;;;;;6165904;23;20013;-87
2022/01/22 14:12:43;;;;;;;6.22;2.25;;;8.30;94.80;;;;;;6138981;23;20435;-78
2022/01/22 14:15:15;;;;;;;9.95;3.08;;;8.80;95.40;;;;;;6161635;23;20084;-76
2022/01/22 14:18:05;;;;;;;5.95;2.50;;;8.90;94.70;;;;;;6161767;23;20025;-77
2022/01/22 14:20:31;;;;;;;9.18;3.28;;;8.90;94.20;;;;;;6160420;23;20017;-77
2022/01/22 14:23:07;;;;;;;8.13;3.00;;;8.80;94.20;;;;;;6136043;23;20065;-87
2022/01/22 14:25:53;;;;;;;6.35;2.10;;;8.80;94.20;;;;;;6161921;23;20021;-75
2022/01/22 14:28:18;;;;;;;9.13;2.80;;;8.90;94.70;;;;;;6137594;23;20023;-73
2022/01/22 14:30:46;;;;;;;7.25;2.38;;;9.10;94.40;;;;;;6134672;23;20048;-75
2022/01/22 14:33:16;;;;;;;7.43;2.75;;;9.10;94.10;;;;;;6157254;23;20021;-74
2022/01/22 14:35:43;;;;;;;8.93;2.30;;;9.10;93.90;;;;;;6135267;23;20028;-76
2022/01/22 14:38:32;;;;;;;10.63;3.08;;;8.90;93.90;;;;;;6157689;23;20447;-73
2022/01/22 14:44:27;;;;;;;7.57;2.28;;;8.70;93.90;;;;;;6163681;23;20025;-75
2022/01/22 14:47:03;;;;;;;6.53;1.90;;;8.60;94.10;;;;;;6137791;23;20443;-79
2022/01/22 14:49:38;;;;;;;10.50;2.47;;;8.50;94.10;;;;;;6133834;23;20024;-75
2022/01/22 14:52:04;;;;;;;8.70;2.88;;;8.50;94.20;;;;;;6158286;23;20047;-80
2022/01/22 14:54:35;;;;;;;9.23;4.05;;;8.40;94.20;;;;;;6135658;23;20435;-76
2022/01/22 14:57:01;;;;;;;7.78;3.38;;;8.40;94.20;;;;;;6135082;23;20017;-77
2022/01/22 14:59:27;;;;;;;11.55;4.32;;;8.30;94.20;;;;;;6134018;23;20019;-75
2022/01/22 15:01:54;;;;;;;9.80;4.22;;;8.30;94.20;;;;;;6159349;23;20388;-80
2022/01/22 15:04:19;;;;;;;8.05;3.22;;;8.30;94.20;;;;;;6158611;23;20021;-76
2022/01/22 15:06:46;;;;;;;9.27;3.45;;;8.30;94.20;;;;;;6110047;23;20353;-76